Time;durP1;ratioP1;P1;durP2;ratioP2;P2;SDS_P1;SDS_P2;PMS_P1;PMS_P2;Temp;Humidity;BMP_temperature;BMP_pressure;BME280_temperature;BME280_humidity;BME280_pressure;Samples;Min_cycle;Max_cycle;Signal;HPM_P1;HPM_P2
2021/11/19 00:02:55;;;;;;;15.35;6.30;;;13.30;56.90;;;;;;6263693;28;20037;-76
2021/11/19 00:05:56;;;;;;;9.15;5.13;;;13.40;56.30;;;;;;6251449;28;20048;-76
2021/11/19 00:08:57;;;;;;;10.35;5.30;;;13.40;56.20;;;;;;6283878;28;20061;-75
2021/11/19 00:11:59;;;;;;;11.15;5.90;;;13.40;56.10;;;;;;6262673;28;20450;-75
2021/11/19 00:15:00;;;;;;;10.10;5.22;;;13.40;56.00;;;;;;6261905;28;20048;-75
2021/11/19 00:18:01;;;;;;;12.82;5.28;;;13.40;56.10;;;;;;6251508;28;20033;-75
2021/11/19 00:21:03;;;;;;;13.35;5.40;;;13.40;56.10;;;;;;6262096;28;20052;-75
2021/11/19 00:24:05;;;;;;;8.45;4.88;;;13.40;56.00;;;;;;6261246;28;20199;-75
2021/11/19 00:27:09;;;;;;;14.38;5.80;;;13.40;55.90;;;;;;6260323;28;20037;-76
2021/11/19 00:30:15;;;;;;;30.25;13.88;;;13.50;56.00;;;;;;6269657;28;20043;-75
2021/11/19 00:33:16;;;;;;;12.68;5.05;;;13.40;55.90;;;;;;6278709;28;20108;-76
2021/11/19 00:36:20;;;;;;;9.07;4.57;;;13.40;55.90;;;;;;6266508;28;20465;-76
2021/11/19 00:39:22;;;;;;;10.00;5.70;;;13.50;55.80;;;;;;6261612;28;20041;-75
2021/11/19 00:42:23;;;;;;;18.17;6.95;;;13.50;55.80;;;;;;6280623;28;20033;-75
2021/11/19 00:45:24;;;;;;;15.90;7.03;;;13.50;55.70;;;;;;6258674;28;20424;-75
2021/11/19 00:48:28;;;;;;;12.80;7.13;;;13.40;55.50;;;;;;6254798;28;20516;-75
2021/11/19 00:51:33;;;;;;;16.30;7.90;;;13.50;55.60;;;;;;6256938;28;20041;-76
2021/11/19 00:54:34;;;;;;;14.38;8.40;;;13.40;55.60;;;;;;6247818;28;20033;-75
2021/11/19 00:57:35;;;;;;;17.70;8.05;;;13.40;55.60;;;;;;6253784;28;20044;-75
2021/11/19 01:00:48;;;;;;;23.10;13.00;;;13.50;55.60;;;;;;6269208;28;20037;-75
2021/11/19 01:03:51;;;;;;;25.17;13.77;;;13.40;55.60;;;;;;6259373;28;20037;-75
2021/11/19 01:06:52;;;;;;;23.70;12.43;;;13.40;55.70;;;;;;6254708;28;20060;-75
2021/11/19 01:09:56;;;;;;;26.35;15.13;;;13.40;55.90;;;;;;6243366;28;20045;-76
2021/11/19 01:12:58;;;;;;;40.47;22.52;;;13.40;55.90;;;;;;6261152;28;20055;-76
2021/11/19 01:16:04;;;;;;;44.50;22.60;;;13.40;56.00;;;;;;6220994;28;20048;-76
2021/11/19 01:19:10;;;;;;;51.25;27.40;;;13.40;56.30;;;;;;6257732;28;20090;-75
2021/11/19 01:22:17;;;;;;;40.13;17.10;;;13.30;56.50;;;;;;6258905;28;20104;-75
2021/11/19 01:25:23;;;;;;;38.28;19.00;;;13.30;56.60;;;;;;6264195;28;20029;-75
2021/11/19 01:28:28;;;;;;;30.85;15.82;;;13.30;56.80;;;;;;6258946;28;20367;-75
2021/11/19 01:31:32;;;;;;;25.13;13.13;;;13.20;56.80;;;;;;6259268;28;20037;-75
2021/11/19 01:34:41;;;;;;;24.23;11.55;;;13.20;56.80;;;;;;6258657;28;20056;-75
2021/11/19 01:38:01;;;;;;;17.60;9.27;;;13.20;56.70;;;;;;6263061;28;20029;-76
2021/11/19 01:41:25;;;;;;;13.30;7.22;;;13.30;56.80;;;;;;6259201;28;20041;-75
2021/11/19 01:44:29;;;;;;;;;;;13.30;56.80;;;;;;6282652;28;20487;-76
2021/11/19 01:47:34;;;;;;;11.82;6.07;;;13.30;56.80;;;;;;6272391;28;19913;-76
2021/11/19 01:50:41;;;;;;;10.05;4.72;;;13.30;56.80;;;;;;6252292;28;20029;-76
2021/11/19 01:53:53;;;;;;;12.48;5.68;;;13.20;56.80;;;;;;6265218;28;20029;-75
2021/11/19 01:57:20;;;;;;;11.27;5.70;;;13.20;56.70;;;;;;6265306;28;20079;-75
2021/11/19 02:00:33;;;;;;;9.03;4.93;;;13.20;56.80;;;;;;6203487;28;20041;-76
2021/11/19 02:03:43;;;;;;;13.02;6.60;;;13.20;56.90;;;;;;6199838;28;20377;-76
2021/11/19 02:06:56;;;;;;;11.32;5.32;;;13.20;57.20;;;;;;6205242;28;20034;-76
2021/11/19 02:10:19;;;;;;;9.50;5.53;;;13.20;57.40;;;;;;6216135;28;20045;-76
2021/11/19 02:13:42;;;;;;;8.35;4.40;;;13.20;57.50;;;;;;6197172;28;20049;-75
2021/11/19 02:16:53;;;;;;;6.47;3.72;;;13.20;57.60;;;;;;6207393;28;20490;-76
2021/11/19 02:19:59;;;;;;;4.25;2.92;;;13.10;57.30;;;;;;6198906;28;20039;-76
2021/11/19 02:23:09;;;;;;;7.53;2.70;;;13.10;56.80;;;;;;6200183;28;20439;-75
2021/11/19 02:26:18;;;;;;;6.13;2.83;;;13.10;56.40;;;;;;6206194;28;20065;-75
2021/11/19 02:29:20;;;;;;;5.57;2.53;;;13.10;56.20;;;;;;6179735;28;20529;-76
2021/11/19 02:32:28;;;;;;;5.60;2.67;;;13.10;56.10;;;;;;6196204;28;20061;-75
2021/11/19 02:36:11;;;;;;;4.25;2.70;;;13.10;56.00;;;;;;6182211;28;20578;-76
2021/11/19 02:39:25;;;;;;;5.80;2.45;;;13.10;55.80;;;;;;6256213;28;20357;-75
2021/11/19 02:42:35;;;;;;;5.72;2.53;;;13.20;55.60;;;;;;6273105;28;20036;-76
2021/11/19 02:45:41;;;;;;;4.97;2.92;;;13.20;55.50;;;;;;6264389;28;20064;-75
2021/11/19 02:48:44;;;;;;;7.03;3.10;;;13.20;55.50;;;;;;6240637;28;20041;-75
2021/11/19 02:51:46;;;;;;;8.80;3.70;;;13.30;55.50;;;;;;6274573;28;20054;-75
2021/11/19 02:54:50;;;;;;;5.05;2.75;;;13.30;55.50;;;;;;6233919;28;20030;-76
2021/11/19 02:57:52;;;;;;;7.47;3.08;;;13.30;55.50;;;;;;6257575;28;20033;-76
2021/11/19 03:01:25;;;;;;;5.43;2.42;;;13.30;55.30;;;;;;6260388;28;20070;-76
2021/11/19 03:04:31;;;;;;;4.40;2.30;;;13.20;55.10;;;;;;6232522;28;20372;-76
2021/11/19 03:07:32;;;;;;;4.75;2.50;;;13.20;55.00;;;;;;6253391;28;20029;-76
2021/11/19 03:10:37;;;;;;;3.92;2.00;;;13.20;55.00;;;;;;6263367;28;20083;-76
2021/11/19 03:13:40;;;;;;;4.47;2.13;;;13.20;54.90;;;;;;6267571;28;20501;-75
2021/11/19 03:16:41;;;;;;;4.25;2.25;;;13.20;54.90;;;;;;6271278;28;20037;-76
2021/11/19 03:19:43;;;;;;;4.65;2.28;;;13.20;54.80;;;;;;6256039;28;20041;-76
2021/11/19 03:22:45;;;;;;;6.60;2.75;;;13.20;54.70;;;;;;6252681;28;20478;-76
2021/11/19 03:25:47;;;;;;;3.25;2.05;;;13.20;54.60;;;;;;6263314;28;20037;-76
2021/11/19 03:28:49;;;;;;;4.07;2.47;;;13.20;54.50;;;;;;6254866;28;20493;-76
2021/11/19 03:31:51;;;;;;;3.97;2.40;;;13.10;54.40;;;;;;6232292;28;20098;-77
2021/11/19 03:34:53;;;;;;;2.83;2.17;;;13.20;54.50;;;;;;6256026;28;20099;-75
2021/11/19 03:37:56;;;;;;;3.75;2.10;;;13.20;54.40;;;;;;6251281;28;20041;-75
2021/11/19 03:40:59;;;;;;;4.45;2.50;;;13.20;54.40;;;;;;6256671;28;20033;-75
2021/11/19 03:44:06;;;;;;;4.88;2.78;;;13.10;54.30;;;;;;6264253;28;20040;-74
2021/11/19 03:47:23;;;;;;;4.97;2.67;;;13.20;54.40;;;;;;6271716;28;20098;-75
2021/11/19 03:50:34;;;;;;;5.07;2.60;;;13.10;54.40;;;;;;6247493;28;20470;-75
2021/11/19 03:53:35;;;;;;;3.60;2.03;;;13.10;54.40;;;;;;6245794;28;20126;-75
2021/11/19 03:56:36;;;;;;;5.55;2.90;;;13.10;54.40;;;;;;6288989;28;20388;-75
2021/11/19 03:59:39;;;;;;;3.35;2.28;;;13.10;54.50;;;;;;6257082;28;20048;-77
2021/11/19 04:02:41;;;;;;;4.97;2.67;;;13.10;54.50;;;;;;6271042;28;20034;-77
2021/11/19 04:05:45;;;;;;;3.72;2.35;;;13.10;54.40;;;;;;6265043;28;20033;-76
2021/11/19 04:08:46;;;;;;;5.15;2.53;;;13.00;54.50;;;;;;6262471;28;20033;-76
2021/11/19 04:11:47;;;;;;;3.90;2.28;;;13.00;54.40;;;;;;6266509;28;20036;-75
2021/11/19 04:14:50;;;;;;;3.70;2.50;;;13.00;54.40;;;;;;6256116;28;20061;-76
2021/11/19 04:17:53;;;;;;;3.92;2.60;;;13.00;54.40;;;;;;6266703;28;20033;-75
2021/11/19 04:20:55;;;;;;;3.90;2.22;;;13.00;54.40;;;;;;6261198;28;20037;-76
2021/11/19 04:23:59;;;;;;;5.85;2.78;;;13.00;54.40;;;;;;6266549;28;20420;-76
2021/11/19 04:27:06;;;;;;;3.95;2.22;;;13.00;54.40;;;;;;6262967;28;20480;-76
2021/11/19 04:30:28;;;;;;;4.00;2.17;;;13.00;54.40;;;;;;6272673;28;20034;-74
2021/11/19 04:33:29;;;;;;;4.63;2.60;;;13.00;54.40;;;;;;6285717;28;20474;-76
2021/11/19 04:36:30;;;;;;;4.57;2.40;;;13.00;54.40;;;;;;6255335;28;20033;-76
2021/11/19 04:39:56;;;;;;;4.32;2.30;;;13.00;54.40;;;;;;6263274;28;20041;-75
2021/11/19 04:42:58;;;;;;;3.92;2.25;;;13.00;54.30;;;;;;6252362;28;20052;-75
2021/11/19 04:46:00;;;;;;;4.28;2.30;;;12.90;54.10;;;;;;6259373;28;20151;-75
2021/11/19 04:49:03;;;;;;;4.60;2.38;;;12.90;54.30;;;;;;6267608;28;20106;-76
2021/11/19 04:52:09;;;;;;;3.97;2.22;;;12.80;54.40;;;;;;6258756;28;20048;-76
2021/11/19 04:55:12;;;;;;;5.65;2.55;;;12.80;54.40;;;;;;6259986;28;20181;-75
2021/11/19 04:58:13;;;;;;;3.97;2.33;;;12.80;54.30;;;;;;6265505;28;20358;-76
2021/11/19 05:01:20;;;;;;;3.58;2.35;;;12.80;54.40;;;;;;6248720;28;20041;-75
2021/11/19 05:04:39;;;;;;;5.47;2.25;;;12.80;54.40;;;;;;6262202;28;20477;-75
2021/11/19 05:07:40;;;;;;;3.03;1.70;;;12.80;54.30;;;;;;6262167;28;20087;-75
2021/11/19 05:10:43;;;;;;;5.95;2.35;;;12.70;54.30;;;;;;6268144;28;20071;-75
2021/11/19 05:13:45;;;;;;;3.25;2.05;;;12.70;54.40;;;;;;6266026;28;20037;-75
2021/11/19 05:16:46;;;;;;;4.53;2.33;;;12.70;54.50;;;;;;6241431;28;20029;-75
2021/11/19 05:24:06;;;;;;;4.43;2.47;;;12.70;54.70;;;;;;6254758;28;20037;-75
2021/11/19 05:27:07;;;;;;;4.90;2.22;;;12.70;54.60;;;;;;6227030;28;20052;-76
2021/11/19 05:30:10;;;;;;;5.20;2.58;;;12.70;54.60;;;;;;6246954;28;20035;-76
2021/11/19 05:33:26;;;;;;;3.28;2.10;;;12.70;54.50;;;;;;6262448;28;20026;-75
2021/11/19 05:36:27;;;;;;;5.28;2.20;;;12.70;54.60;;;;;;6267368;28;20354;-75
2021/11/19 05:39:28;;;;;;;8.13;2.45;;;12.70;54.60;;;;;;6245083;28;20029;-76
2021/11/19 05:42:29;;;;;;;4.60;2.50;;;12.70;54.60;;;;;;6229995;28;20045;-75
2021/11/19 05:45:32;;;;;;;3.47;2.13;;;12.70;55.10;;;;;;6245384;28;20042;-76
2021/11/19 05:48:37;;;;;;;3.95;2.35;;;12.70;54.50;;;;;;6267459;28;20041;-75
2021/11/19 05:51:39;;;;;;;2.83;1.83;;;12.70;55.00;;;;;;6258616;28;20041;-76
2021/11/19 05:54:42;;;;;;;5.35;2.67;;;12.70;54.40;;;;;;6260891;28;20033;-75
2021/11/19 05:57:43;;;;;;;3.28;2.10;;;12.70;54.50;;;;;;6257676;28;20060;-75
2021/11/19 06:00:50;;;;;;;4.47;2.78;;;12.70;54.50;;;;;;6239981;28;20466;-75
2021/11/19 06:04:13;;;;;;;4.72;1.92;;;12.70;54.50;;;;;;6257678;28;20522;-75
2021/11/19 06:07:30;;;;;;;3.67;2.30;;;12.70;54.40;;;;;;6248360;28;20033;-76
2021/11/19 06:10:32;;;;;;;4.47;2.40;;;12.60;54.40;;;;;;6265645;28;20484;-76
2021/11/19 06:13:55;;;;;;;4.18;2.22;;;12.60;54.50;;;;;;6242346;28;20057;-75
2021/11/19 06:17:01;;;;;;;5.82;2.90;;;12.60;54.60;;;;;;6254704;28;20069;-76
2021/11/19 06:20:29;;;;;;;5.63;2.45;;;12.60;54.50;;;;;;6257076;28;20091;-76
2021/11/19 06:23:41;;;;;;;5.43;2.63;;;12.60;54.50;;;;;;6260999;28;20045;-75
2021/11/19 06:26:45;;;;;;;5.07;2.90;;;12.60;54.40;;;;;;6246532;28;20038;-76
2021/11/19 06:29:47;;;;;;;4.88;2.45;;;12.60;54.40;;;;;;6265908;28;20049;-76
2021/11/19 06:32:49;;;;;;;4.75;2.30;;;12.60;54.50;;;;;;6256788;28;20041;-76
2021/11/19 06:35:50;;;;;;;4.78;2.33;;;12.60;54.40;;;;;;6254178;28;20045;-76
2021/11/19 06:38:53;;;;;;;4.30;2.45;;;12.60;54.50;;;;;;6257694;28;20454;-75
2021/11/19 06:41:54;;;;;;;10.30;2.83;;;12.60;54.40;;;;;;6249564;28;20140;-79
2021/11/19 06:45:15;;;;;;;3.20;2.05;;;12.60;54.50;;;;;;6254610;28;20108;-76
2021/11/19 06:48:43;;;;;;;4.85;2.90;;;12.80;54.60;;;;;;6249413;28;20465;-77
2021/11/19 06:52:06;;;;;;;5.32;2.83;;;12.60;54.50;;;;;;6243244;28;20444;-75
2021/11/19 06:55:39;;;;;;;5.22;2.45;;;12.50;54.50;;;;;;6252864;28;20559;-76
2021/11/19 06:59:01;;;;;;;4.35;2.25;;;12.50;54.60;;;;;;6196126;28;20101;-75
2021/11/19 07:02:03;;;;;;;5.03;1.98;;;12.50;54.60;;;;;;6191216;28;20031;-75
2021/11/19 07:05:05;;;;;;;4.88;2.80;;;12.40;54.60;;;;;;6202091;28;20129;-77
2021/11/19 07:08:09;;;;;;;6.25;2.20;;;12.40;54.80;;;;;;6195473;28;20031;-76
2021/11/19 07:11:15;;;;;;;5.28;2.95;;;12.40;54.80;;;;;;6193908;28;20089;-75
2021/11/19 07:14:16;;;;;;;3.10;2.05;;;12.50;54.90;;;;;;6210762;28;20134;-75
2021/11/19 07:17:17;;;;;;;3.80;2.22;;;12.50;54.80;;;;;;6192787;28;20030;-75
2021/11/19 07:20:22;;;;;;;6.57;2.60;;;12.50;54.70;;;;;;6173358;28;20042;-76
2021/11/19 07:23:23;;;;;;;4.07;2.42;;;12.50;54.70;;;;;;6178881;28;20121;-76
2021/11/19 07:26:28;;;;;;;4.32;2.55;;;12.50;54.70;;;;;;6190801;28;20216;-76
2021/11/19 07:29:29;;;;;;;5.35;2.85;;;12.50;54.80;;;;;;6195380;28;20045;-76
2021/11/19 07:32:33;;;;;;;4.10;2.00;;;12.60;54.80;;;;;;6196246;28;20436;-76
2021/11/19 07:35:54;;;;;;;6.05;3.00;;;12.60;54.70;;;;;;6224783;28;20042;-77
2021/11/19 07:39:09;;;;;;;4.50;1.90;;;12.60;54.60;;;;;;6248444;28;20045;-77
2021/11/19 07:42:29;;;;;;;5.38;2.45;;;12.60;54.60;;;;;;6261714;28;20119;-75
2021/11/19 07:45:46;;;;;;;4.18;2.28;;;12.60;54.50;;;;;;6260983;28;20043;-76
2021/11/19 07:48:57;;;;;;;7.63;2.22;;;12.60;54.50;;;;;;6262358;28;20029;-75
2021/11/19 07:52:02;;;;;;;4.82;2.72;;;12.50;54.50;;;;;;6251342;28;20038;-75
2021/11/19 07:55:05;;;;;;;14.43;3.13;;;12.50;54.40;;;;;;6258068;28;20355;-76
2021/11/19 07:58:07;;;;;;;5.18;2.58;;;12.40;54.60;;;;;;6239220;28;20459;-76
2021/11/19 08:01:09;;;;;;;4.20;2.25;;;12.40;54.60;;;;;;6253372;28;20377;-76
2021/11/19 08:04:11;;;;;;;3.65;2.13;;;12.40;54.60;;;;;;6248401;28;20064;-77
2021/11/19 08:07:12;;;;;;;8.20;2.40;;;12.40;54.70;;;;;;6248207;28;20343;-76
2021/11/19 08:10:23;;;;;;;3.38;2.15;;;12.40;54.70;;;;;;6244872;28;20426;-76
2021/11/19 08:13:26;;;;;;;4.22;2.20;;;12.40;55.30;;;;;;6187773;28;1242527;-75
2021/11/19 08:16:33;;;;;;;4.57;2.38;;;12.50;54.70;;;;;;6248912;28;20333;-75
2021/11/19 08:19:51;;;;;;;4.00;2.10;;;12.50;54.60;;;;;;6239413;28;20116;-75
2021/11/19 08:22:53;;;;;;;6.05;2.20;;;12.50;54.60;;;;;;6257134;28;20037;-76
2021/11/19 08:25:54;;;;;;;4.18;2.35;;;12.60;54.50;;;;;;6250155;28;20037;-76
2021/11/19 08:28:55;;;;;;;5.40;2.28;;;12.60;54.40;;;;;;6258328;28;20041;-77
2021/11/19 08:31:58;;;;;;;5.20;2.65;;;12.70;54.40;;;;;;6256616;28;20120;-76
2021/11/19 08:34:59;;;;;;;3.10;1.95;;;12.70;54.20;;;;;;6258143;28;20037;-76
2021/11/19 08:38:01;;;;;;;3.97;2.40;;;12.70;54.20;;;;;;6258391;28;20049;-76
2021/11/19 08:41:03;;;;;;;4.75;2.45;;;12.70;54.20;;;;;;6260053;28;20481;-77
2021/11/19 08:44:06;;;;;;;15.43;2.83;;;12.70;54.20;;;;;;6256245;28;20037;-76
2021/11/19 08:47:09;;;;;;;3.40;2.25;;;12.80;54.20;;;;;;6254105;28;20453;-76
2021/11/19 08:50:11;;;;;;;3.83;2.20;;;12.80;54.20;;;;;;6246700;28;20037;-75
2021/11/19 08:53:14;;;;;;;5.80;2.95;;;12.90;54.10;;;;;;6251247;28;20037;-76
2021/11/19 08:56:15;;;;;;;3.45;2.05;;;12.90;54.00;;;;;;6247685;28;20041;-76
2021/11/19 08:59:18;;;;;;;3.85;1.95;;;12.90;53.90;;;;;;6253572;28;20143;-76
2021/11/19 09:02:24;;;;;;;3.13;2.00;;;13.00;53.80;;;;;;6265000;28;20473;-77
2021/11/19 09:05:27;;;;;;;3.35;2.10;;;13.00;53.70;;;;;;6266636;28;20335;-77
2021/11/19 09:08:29;;;;;;;6.70;2.05;;;13.00;53.70;;;;;;6273022;28;20401;-77
2021/11/19 09:11:31;;;;;;;3.75;2.42;;;13.00;53.80;;;;;;6275006;28;20032;-76
2021/11/19 09:14:32;;;;;;;6.15;2.20;;;13.00;53.70;;;;;;6249170;28;20069;-75
2021/11/19 09:17:47;;;;;;;3.75;1.73;;;13.10;53.50;;;;;;6251199;28;20324;-76
2021/11/19 09:20:58;;;;;;;3.28;2.15;;;13.10;53.50;;;;;;6247953;28;20045;-76
2021/11/19 09:24:04;;;;;;;5.55;2.83;;;13.10;53.50;;;;;;6257407;28;20037;-77
2021/11/19 09:27:11;;;;;;;5.75;2.35;;;13.20;53.40;;;;;;6251964;28;20030;-76
2021/11/19 09:30:26;;;;;;;3.90;2.22;;;13.20;53.30;;;;;;6273478;28;20091;-76
2021/11/19 09:33:28;;;;;;;6.50;2.55;;;13.30;53.10;;;;;;6265694;28;20243;-77
2021/11/19 09:36:29;;;;;;;3.30;2.13;;;13.40;53.00;;;;;;6267045;28;20057;-77
2021/11/19 09:39:30;;;;;;;4.93;2.90;;;13.40;52.90;;;;;;6277528;28;20045;-77
2021/11/19 09:42:52;;;;;;;3.72;2.47;;;13.40;52.70;;;;;;6260994;28;20060;-76
2021/11/19 09:46:27;;;;;;;4.43;2.65;;;13.40;52.70;;;;;;6267019;28;20474;-76
2021/11/19 09:49:37;;;;;;;3.97;2.42;;;13.40;52.60;;;;;;6260136;28;20438;-76
2021/11/19 09:52:59;;;;;;;6.28;3.15;;;13.40;52.60;;;;;;6235621;28;20362;-76
2021/11/19 09:56:16;;;;;;;4.45;2.28;;;13.40;52.70;;;;;;6258696;28;20045;-76
2021/11/19 09:59:41;;;;;;;4.72;2.47;;;13.40;52.60;;;;;;6243887;28;20072;-75
2021/11/19 10:03:10;;;;;;;4.45;2.20;;;13.40;52.50;;;;;;6218358;28;20030;-76
2021/11/19 10:06:12;;;;;;;10.00;2.43;;;13.40;52.40;;;;;;6243453;28;20034;-75
2021/11/19 10:09:42;;;;;;;5.10;2.83;;;13.40;52.40;;;;;;6285194;28;20093;-76
2021/11/19 10:13:21;;;;;;;5.03;2.90;;;13.40;52.50;;;;;;6287662;28;20032;-76
2021/11/19 10:16:29;;;;;;;5.15;2.75;;;13.30;53.00;;;;;;6171848;28;20537;-76
2021/11/19 10:19:59;;;;;;;5.80;2.50;;;13.40;52.40;;;;;;6179117;28;20049;-76
2021/11/19 10:23:13;;;;;;;4.70;2.53;;;13.40;52.40;;;;;;6103853;29;20039;-75
2021/11/19 10:26:18;;;;;;;4.63;2.10;;;13.40;52.40;;;;;;6104233;29;20036;-76
2021/11/19 10:29:25;;;;;;;19.52;3.00;;;13.40;52.40;;;;;;6106648;29;20452;-77
2021/11/19 10:32:29;;;;;;;4.60;2.58;;;13.50;52.40;;;;;;6106490;28;20039;-77
2021/11/19 10:36:07;;;;;;;4.03;2.55;;;13.60;52.20;;;;;;6121559;29;20464;-76
2021/11/19 10:39:27;;;;;;;5.13;2.63;;;13.70;52.20;;;;;;6123710;29;20155;-76
2021/11/19 10:42:40;;;;;;;3.85;2.58;;;13.80;52.10;;;;;;6122974;29;20043;-75
2021/11/19 10:46:12;;;;;;;9.63;3.25;;;13.90;51.90;;;;;;6118448;28;20347;-76
2021/11/19 10:49:37;;;;;;;5.60;3.10;;;13.90;51.70;;;;;;6075175;29;20036;-76
2021/11/19 10:52:55;;;;;;;7.55;2.90;;;14.00;51.60;;;;;;6130301;28;20086;-76
2021/11/19 10:56:29;;;;;;;6.88;3.70;;;14.10;52.10;;;;;;6160375;28;20062;-75
2021/11/19 10:59:38;;;;;;;4.57;2.80;;;14.10;51.60;;;;;;6210411;28;20079;-76
2021/11/19 11:02:57;;;;;;;5.97;3.42;;;14.20;51.40;;;;;;6252804;28;20037;-76
2021/11/19 11:06:05;;;;;;;5.78;2.97;;;14.30;51.30;;;;;;6258773;28;20082;-76
2021/11/19 11:09:15;;;;;;;;;;;14.50;51.10;;;;;;6265842;28;20033;-76
2021/11/19 11:12:16;;;;;;;6.13;3.20;;;14.60;50.90;;;;;;6226259;28;20430;-77
2021/11/19 11:15:23;;;;;;;9.05;4.40;;;14.80;50.70;;;;;;6257634;28;20049;-78
2021/11/19 11:18:32;;;;;;;13.55;5.60;;;14.80;50.50;;;;;;6251648;28;20025;-77
2021/11/19 11:21:38;;;;;;;6.18;3.28;;;14.90;50.40;;;;;;6253551;28;20053;-77
2021/11/19 11:24:58;;;;;;;13.00;4.68;;;14.90;50.40;;;;;;6273930;28;20041;-77
2021/11/19 11:28:08;;;;;;;9.70;4.25;;;15.10;50.40;;;;;;6286008;28;20029;-76
2021/11/19 11:31:33;;;;;;;8.40;4.55;;;15.40;49.90;;;;;;6265334;28;20037;-76
2021/11/19 11:34:42;;;;;;;10.05;4.75;;;15.90;48.90;;;;;;6245099;28;20037;-76
2021/11/19 11:37:55;;;;;;;12.38;5.63;;;16.10;48.10;;;;;;6268015;28;20044;-76
2021/11/19 11:41:05;;;;;;;10.85;6.13;;;16.40;47.40;;;;;;6231513;28;20048;-77
2021/11/19 11:44:12;;;;;;;15.63;6.90;;;16.80;47.00;;;;;;6290795;28;20036;-77
2021/11/19 11:47:48;;;;;;;12.40;6.43;;;16.70;46.60;;;;;;6262351;28;20439;-77
2021/11/19 11:50:58;;;;;;;13.35;6.63;;;16.30;46.90;;;;;;6256191;28;20033;-75
2021/11/19 11:54:22;;;;;;;14.05;6.03;;;15.90;47.50;;;;;;6265169;28;20060;-76
2021/11/19 11:57:28;;;;;;;12.80;6.82;;;15.50;48.20;;;;;;6266214;28;20335;-76
2021/11/19 12:01:12;;;;;;;11.05;5.80;;;15.20;49.00;;;;;;6266758;28;20067;-77
2021/11/19 12:04:25;;;;;;;17.00;6.47;;;14.90;49.60;;;;;;6268439;28;20403;-77
2021/11/19 12:08:05;;;;;;;12.35;6.32;;;14.80;50.10;;;;;;6276891;28;20477;-77
2021/11/19 12:11:15;;;;;;;13.88;7.13;;;14.60;50.40;;;;;;6262577;28;20116;-77
2021/11/19 12:14:34;;;;;;;17.55;6.07;;;14.50;50.70;;;;;;6271946;28;20069;-76
2021/11/19 12:17:49;;;;;;;14.55;6.18;;;14.50;51.00;;;;;;6276167;28;20047;-76
2021/11/19 12:21:28;;;;;;;15.20;6.93;;;14.30;51.10;;;;;;6252083;28;20061;-76
2021/11/19 12:24:46;;;;;;;22.13;10.38;;;14.30;51.40;;;;;;6260086;28;20029;-77
2021/11/19 12:27:52;;;;;;;35.88;11.88;;;14.30;51.50;;;;;;6260118;28;20434;-77
2021/11/19 12:31:37;;;;;;;25.00;11.38;;;14.30;51.60;;;;;;6247653;28;20100;-77
2021/11/19 12:34:49;;;;;;;18.33;8.30;;;14.30;51.70;;;;;;6241575;28;20045;-75
2021/11/19 12:38:12;;;;;;;16.35;8.23;;;14.40;51.60;;;;;;6258468;28;20041;-78
2021/11/19 12:41:47;;;;;;;12.43;6.63;;;14.40;51.70;;;;;;6254694;28;20041;-76
2021/11/19 12:44:52;;;;;;;19.60;7.53;;;14.50;51.60;;;;;;6265470;28;20378;-76
2021/11/19 12:48:07;;;;;;;12.98;6.28;;;14.50;51.70;;;;;;6253170;28;20033;-77
2021/11/19 12:51:25;;;;;;;13.68;6.55;;;14.50;51.80;;;;;;6264374;28;20045;-77
2021/11/19 12:54:29;;;;;;;12.87;6.33;;;14.50;51.70;;;;;;6238528;28;20046;-76
2021/11/19 12:57:40;;;;;;;17.05;6.65;;;14.50;51.70;;;;;;6238203;28;20029;-77
2021/11/19 13:01:05;;;;;;;13.32;6.68;;;14.50;51.80;;;;;;6261458;28;20040;-77
2021/11/19 13:04:27;;;;;;;12.48;6.72;;;14.50;51.80;;;;;;6246871;28;20025;-76
2021/11/19 13:07:57;;;;;;;16.38;6.90;;;14.50;51.80;;;;;;6262974;28;20171;-76
2021/11/19 13:11:38;;;;;;;16.85;7.85;;;14.50;51.80;;;;;;6266454;28;20036;-75
2021/11/19 13:14:43;;;;;;;15.23;7.15;;;14.50;52.00;;;;;;6257506;28;20049;-76
2021/11/19 13:18:04;;;;;;;16.35;7.35;;;14.50;52.00;;;;;;6235127;28;20478;-76
2021/11/19 13:21:34;;;;;;;17.08;7.15;;;14.50;52.00;;;;;;6275120;28;20062;-76
2021/11/19 13:24:46;;;;;;;16.90;7.43;;;14.50;52.00;;;;;;6261723;28;20092;-76
2021/11/19 13:27:48;;;;;;;16.83;7.57;;;14.60;52.00;;;;;;6261243;28;20041;-76
2021/11/19 13:30:49;;;;;;;14.65;6.57;;;14.60;52.00;;;;;;6272189;28;20066;-78
2021/11/19 13:34:05;;;;;;;17.48;6.85;;;14.60;52.10;;;;;;6278916;28;20041;-76
2021/11/19 13:37:27;;;;;;;14.18;6.57;;;14.60;52.10;;;;;;6238834;28;20142;-76
2021/11/19 13:40:28;;;;;;;14.35;6.93;;;14.70;52.10;;;;;;6239971;28;20140;-76
2021/11/19 13:43:29;;;;;;;19.65;8.13;;;14.70;52.10;;;;;;6253641;28;20044;-75
2021/11/19 13:46:50;;;;;;;15.57;7.03;;;14.70;52.10;;;;;;6253235;28;20033;-75
2021/11/19 13:50:13;;;;;;;20.52;7.68;;;14.70;52.00;;;;;;6239692;28;20392;-76
2021/11/19 13:53:27;;;;;;;14.20;6.88;;;14.70;52.10;;;;;;6264071;28;20028;-76
2021/11/19 13:56:43;;;;;;;15.18;7.40;;;14.80;52.10;;;;;;6258774;28;20335;-76
2021/11/19 13:59:51;;;;;;;15.07;6.80;;;14.80;52.00;;;;;;6259473;28;20354;-75
2021/11/19 14:02:54;;;;;;;13.38;6.13;;;14.80;52.00;;;;;;6252202;28;20054;-75
2021/11/19 14:05:57;;;;;;;30.75;14.60;;;14.90;52.00;;;;;;6257886;28;20049;-76
2021/11/19 14:09:07;;;;;;;16.00;6.15;;;14.90;51.80;;;;;;6254639;28;20140;-77
2021/11/19 14:12:33;;;;;;;24.17;8.50;;;14.90;51.80;;;;;;6250925;28;20450;-77
2021/11/19 14:15:40;;;;;;;12.93;7.13;;;14.90;51.90;;;;;;6254088;28;20049;-78
2021/11/19 14:22:04;;;;;;;22.80;10.60;;;14.90;51.90;;;;;;6249135;28;20057;-77
2021/11/19 14:25:13;;;;;;;20.88;7.22;;;14.90;52.10;;;;;;6255112;28;20048;-77
2021/11/19 14:28:23;;;;;;;17.95;7.35;;;14.90;52.00;;;;;;6260948;28;20414;-78
2021/11/19 14:31:26;;;;;;;15.02;6.70;;;15.00;52.10;;;;;;6261365;28;20036;-76
2021/11/19 14:34:50;;;;;;;12.23;6.88;;;15.00;52.10;;;;;;6245334;28;20431;-79
2021/11/19 14:38:02;;;;;;;17.02;8.27;;;14.90;52.10;;;;;;6239508;28;20041;-76
2021/11/19 14:41:57;;;;;;;13.95;7.28;;;15.00;52.20;;;;;;6259408;28;20045;-77
2021/11/19 14:45:04;;;;;;;13.50;7.30;;;15.00;52.20;;;;;;6173999;28;20070;-76
2021/11/19 14:48:40;;;;;;;14.32;7.15;;;15.00;52.10;;;;;;6165952;28;20039;-76
2021/11/19 14:51:48;;;;;;;15.50;7.53;;;15.00;52.20;;;;;;6145528;28;20061;-76
2021/11/19 14:54:54;;;;;;;12.02;6.93;;;15.00;52.10;;;;;;6149172;28;20047;-77
2021/11/19 14:58:27;;;;;;;20.83;9.15;;;15.00;52.70;;;;;;6158214;28;20039;-77
2021/11/19 15:01:29;;;;;;;13.85;7.45;;;15.00;52.20;;;;;;6139519;28;20097;-77
2021/11/19 15:04:33;;;;;;;14.45;7.03;;;15.00;52.10;;;;;;6167141;28;20570;-76
2021/11/19 15:07:34;;;;;;;20.50;6.82;;;15.00;52.20;;;;;;6184604;28;20097;-76
2021/11/19 15:10:40;;;;;;;14.82;7.28;;;15.00;52.20;;;;;;6177207;28;20075;-75
2021/11/19 15:14:20;;;;;;;15.50;7.32;;;15.00;52.20;;;;;;6187608;28;20045;-76
2021/11/19 15:17:48;;;;;;;16.83;7.28;;;15.00;52.20;;;;;;6238435;28;20030;-77
2021/11/19 15:21:19;;;;;;;19.88;7.85;;;15.00;52.20;;;;;;6249094;28;20127;-76
2021/11/19 15:24:20;;;;;;;17.08;8.15;;;15.00;52.20;;;;;;6242538;28;20068;-76
2021/11/19 15:27:43;;;;;;;15.45;7.32;;;15.00;52.20;;;;;;6231572;28;20030;-77
2021/11/19 15:31:17;;;;;;;18.50;9.32;;;15.00;52.30;;;;;;6264000;28;20531;-77
2021/11/19 15:34:47;;;;;;;14.63;5.93;;;14.90;52.30;;;;;;6259237;28;20111;-76
2021/11/19 15:37:55;;;;;;;9.60;4.18;;;14.90;52.30;;;;;;6264378;28;20040;-77
2021/11/19 15:40:56;;;;;;;6.82;4.35;;;14.80;52.30;;;;;;6260355;28;20099;-76
2021/11/19 15:44:04;;;;;;;7.45;3.50;;;14.70;52.30;;;;;;6250119;28;20107;-78
2021/11/19 15:47:07;;;;;;;11.32;3.83;;;14.70;52.40;;;;;;6262607;28;20400;-77
2021/11/19 15:50:10;;;;;;;9.20;4.30;;;14.60;52.60;;;;;;6257626;28;20060;-77
2021/11/19 15:53:28;;;;;;;7.95;4.15;;;14.50;52.60;;;;;;6267542;28;20377;-75
2021/11/19 15:56:50;;;;;;;10.27;3.75;;;14.40;52.70;;;;;;6264855;28;20095;-76
2021/11/19 16:00:11;;;;;;;8.43;3.92;;;14.30;52.90;;;;;;6260900;28;20121;-76
2021/11/19 16:03:33;;;;;;;7.47;3.80;;;14.30;53.00;;;;;;6266507;28;20121;-76
2021/11/19 16:07:05;;;;;;;13.50;4.05;;;14.20;53.10;;;;;;6271246;28;20039;-77
2021/11/19 16:10:26;;;;;;;13.98;4.30;;;14.20;53.20;;;;;;6262845;28;20040;-77
2021/11/19 16:13:34;;;;;;;10.23;3.95;;;14.10;53.20;;;;;;6271092;28;20378;-78
2021/11/19 16:16:51;;;;;;;7.43;3.83;;;14.10;53.30;;;;;;6251538;28;20029;-77
2021/11/19 16:19:52;;;;;;;14.15;4.63;;;14.10;53.30;;;;;;6279819;28;20045;-77
2021/11/19 16:22:54;;;;;;;11.57;4.63;;;14.10;53.30;;;;;;6246362;28;20176;-76
2021/11/19 16:25:57;;;;;;;8.52;4.38;;;14.10;53.30;;;;;;6272525;28;20060;-77
2021/11/19 16:28:58;;;;;;;19.77;7.30;;;14.10;53.40;;;;;;6258614;28;20408;-77
2021/11/19 16:32:00;;;;;;;22.33;7.45;;;14.10;53.50;;;;;;6261248;28;20045;-77
2021/11/19 16:35:01;;;;;;;17.50;6.72;;;14.10;53.60;;;;;;6273175;28;20095;-77